Time;durP1;ratioP1;P1;durP2;ratioP2;P2;SDS_P1;SDS_P2;PMS_P1;PMS_P2;Temp;Humidity;BMP_temperature;BMP_pressure;BME280_temperature;BME280_humidity;BME280_pressure;Samples;Min_cycle;Max_cycle;Signal;HPM_P1;HPM_P2
2021/05/17 00:00:57;;;;;;;2.58;0.60;;;;;;;10.46;100.00;99193.09;5191622;28;20084;-78
2021/05/17 00:03:28;;;;;;;2.75;0.77;;;;;;;10.39;100.00;99191.78;5184889;28;20026;-79
2021/05/17 00:05:59;;;;;;;4.30;0.50;;;;;;;10.23;100.00;99197.03;5190458;28;20037;-78
2021/05/17 00:08:29;;;;;;;1.77;0.50;;;;;;;10.14;100.00;99201.94;5203964;28;20047;-79
2021/05/17 00:11:00;;;;;;;2.47;0.70;;;;;;;10.06;100.00;99198.88;5201918;28;20025;-78
2021/05/17 00:13:30;;;;;;;1.75;0.45;;;;;;;9.91;100.00;99204.91;5205231;28;20060;-79
2021/05/17 00:16:00;;;;;;;2.90;0.50;;;;;;;9.88;100.00;99205.09;5205219;28;20079;-78
2021/05/17 00:18:31;;;;;;;1.02;0.52;;;;;;;9.97;100.00;99204.59;5205367;28;20037;-78
2021/05/17 00:21:03;;;;;;;2.97;0.50;;;;;;;10.03;100.00;99197.28;5204628;28;20099;-78
2021/05/17 00:23:33;;;;;;;1.10;0.40;;;;;;;9.92;100.00;99201.38;5205264;28;20025;-78
2021/05/17 00:26:04;;;;;;;1.77;0.60;;;;;;;9.82;100.00;99206.25;5205204;28;20415;-79
2021/05/17 00:28:34;;;;;;;1.42;0.50;;;;;;;9.98;100.00;99212.31;5205112;28;20028;-79
2021/05/17 00:31:05;;;;;;;1.58;0.50;;;;;;;9.87;100.00;99208.63;5204955;28;20091;-79
2021/05/17 00:33:35;;;;;;;1.65;0.60;;;;;;;9.97;100.00;99209.81;5194560;28;20040;-79
2021/05/17 00:36:06;;;;;;;1.20;0.35;;;;;;;9.92;100.00;99209.19;5194363;28;20423;-78
2021/05/17 00:38:37;;;;;;;1.13;0.43;;;;;;;9.85;100.00;99216.50;5205071;28;20495;-78
2021/05/17 00:41:07;;;;;;;10.07;0.60;;;;;;;9.70;100.00;99206.09;5202342;28;20034;-79
2021/05/17 00:43:38;;;;;;;2.45;0.55;;;;;;;9.71;100.00;99202.53;5201024;28;20030;-78
2021/05/17 00:46:11;;;;;;;0.75;0.50;;;;;;;9.79;100.00;99206.41;5189246;28;20030;-79
2021/05/17 00:48:42;;;;;;;3.83;0.70;;;;;;;9.85;100.00;99205.25;5195110;28;20104;-78
2021/05/17 00:51:13;;;;;;;1.00;0.40;;;;;;;9.88;100.00;99215.53;5191955;28;20040;-79
2021/05/17 00:53:44;;;;;;;4.38;0.75;;;;;;;9.85;100.00;99205.25;5191724;28;20022;-79
2021/05/17 00:56:15;;;;;;;4.53;0.50;;;;;;;9.75;100.00;99209.28;5174982;28;20562;-79
2021/05/17 00:58:46;;;;;;;2.00;0.88;;;;;;;9.79;100.00;99211.63;5190523;28;20034;-79
2021/05/17 01:01:17;;;;;;;0.60;0.35;;;;;;;9.81;100.00;99208.97;5187575;28;20026;-79
2021/05/17 01:03:48;;;;;;;3.45;0.68;;;;;;;9.71;100.00;99210.38;5191383;28;20021;-79
2021/05/17 01:06:21;;;;;;;1.85;0.55;;;;;;;9.71;100.00;99215.59;5189431;28;20036;-78
2021/05/17 01:09:00;;;;;;;1.73;0.70;;;;;;;9.77;100.00;99212.63;5199128;28;20041;-78
2021/05/17 01:11:32;;;;;;;2.42;0.57;;;;;;;9.69;100.00;99213.03;5185161;28;20021;-78
2021/05/17 01:14:07;;;;;;;2.80;0.60;;;;;;;9.77;100.00;99215.25;5196932;28;20033;-79
2021/05/17 01:16:38;;;;;;;1.50;0.55;;;;;;;9.65;100.00;99213.31;5232878;23;20041;-83
2021/05/17 01:19:11;;;;;;;1.65;0.50;;;;;;;9.60;100.00;99216.16;5216958;28;20030;-83
2021/05/17 01:21:52;;;;;;;2.45;0.70;;;;;;;9.46;100.00;99223.03;5208270;28;20091;-83
2021/05/17 01:24:23;;;;;;;1.85;0.40;;;;;;;9.44;100.00;99217.03;5191377;28;20037;-81
2021/05/17 01:26:54;;;;;;;1.40;0.50;;;;;;;9.36;100.00;99216.63;5190261;28;20479;-82
2021/05/17 01:29:24;;;;;;;1.98;0.60;;;;;;;9.25;100.00;99218.94;5224408;28;20021;-81
2021/05/17 01:31:54;;;;;;;0.98;0.45;;;;;;;9.29;100.00;99212.66;5226927;28;20025;-81
2021/05/17 01:34:25;;;;;;;2.10;0.60;;;;;;;9.20;100.00;99216.59;5209302;28;20055;-81
2021/05/17 01:36:59;;;;;;;5.40;0.70;;;;;;;9.08;100.00;99221.56;5209998;28;20564;-83
2021/05/17 01:39:31;;;;;;;2.10;0.50;;;;;;;9.26;100.00;99220.59;5229007;28;20025;-81
2021/05/17 01:42:02;;;;;;;0.98;0.60;;;;;;;9.24;100.00;99218.09;5210090;28;20035;-82
2021/05/17 01:44:37;;;;;;;1.45;0.60;;;;;;;9.14;100.00;99216.06;5210807;28;20021;-82
2021/05/17 01:47:08;;;;;;;1.20;0.60;;;;;;;9.11;100.00;99217.97;5211207;28;20094;-82
2021/05/17 01:49:41;;;;;;;2.05;0.55;;;;;;;8.97;100.00;99216.06;5211352;28;20771;-82
2021/05/17 01:52:13;;;;;;;4.30;0.70;;;;;;;8.93;100.00;99222.31;5229407;28;20033;-82
2021/05/17 01:54:45;;;;;;;1.55;0.60;;;;;;;8.92;100.00;99225.03;5210761;28;20052;-82
2021/05/17 01:57:16;;;;;;;5.07;0.57;;;;;;;8.77;100.00;99220.59;5211903;28;20044;-82
2021/05/17 01:59:46;;;;;;;1.95;0.63;;;;;;;8.86;100.00;99223.56;5210388;28;20052;-82
2021/05/17 02:02:16;;;;;;;1.75;0.60;;;;;;;8.78;100.00;99220.53;5209577;28;20059;-82
2021/05/17 02:04:48;;;;;;;1.90;0.70;;;;;;;8.87;100.00;99225.25;5210657;28;20025;-81
2021/05/17 02:07:18;;;;;;;2.20;0.70;;;;;;;8.74;100.00;99226.78;5211245;28;20028;-82
2021/05/17 02:09:53;;;;;;;4.22;0.73;;;;;;;8.82;100.00;99224.66;5210772;28;20029;-82
2021/05/17 02:12:24;;;;;;;8.07;0.60;;;;;;;8.76;100.00;99218.91;5209955;28;20121;-82
2021/05/17 02:14:55;;;;;;;2.63;0.60;;;;;;;8.55;100.00;99226.00;5208661;28;20617;-81
2021/05/17 02:17:26;;;;;;;2.60;0.60;;;;;;;8.69;100.00;99226.16;5209728;28;20071;-82
2021/05/17 02:19:58;;;;;;;2.42;0.60;;;;;;;8.64;100.00;99220.34;5209235;28;20110;-82
2021/05/17 02:22:29;;;;;;;1.40;0.60;;;;;;;8.58;100.00;99225.84;5211985;28;20025;-82
2021/05/17 02:24:59;;;;;;;1.42;0.60;;;;;;;8.65;100.00;99229.84;5208815;28;20044;-81
2021/05/17 02:27:30;;;;;;;3.45;0.70;;;;;;;8.74;100.00;99232.00;5229105;28;20394;-81
2021/05/17 02:30:00;;;;;;;2.58;0.50;;;;;;;8.69;100.00;99231.38;5229318;28;20099;-82
2021/05/17 02:32:31;;;;;;;2.95;0.60;;;;;;;8.66;100.00;99228.06;5227611;28;20025;-82
2021/05/17 02:35:01;;;;;;;3.55;0.70;;;;;;;8.50;100.00;99233.19;5209518;28;20559;-81
2021/05/17 02:37:33;;;;;;;2.55;0.80;;;;;;;8.53;100.00;99232.22;5208734;28;20017;-81
2021/05/17 02:40:05;;;;;;;1.45;0.70;;;;;;;8.61;100.00;99233.53;5212303;28;20083;-82
2021/05/17 02:42:35;;;;;;;2.35;0.70;;;;;;;8.60;100.00;99239.66;5211435;28;20025;-82
2021/05/17 02:45:06;;;;;;;2.05;0.70;;;;;;;8.62;100.00;99235.22;5210331;28;20475;-82
2021/05/17 02:47:37;;;;;;;3.80;0.70;;;;;;;8.71;100.00;99241.72;5210896;28;20039;-82
2021/05/17 02:50:11;;;;;;;3.75;0.90;;;;;;;8.77;100.00;99241.41;5210137;28;20097;-82
2021/05/17 02:52:44;;;;;;;3.30;0.90;;;;;;;8.80;100.00;99234.31;5211712;28;20021;-82
2021/05/17 02:55:15;;;;;;;2.92;0.90;;;;;;;8.72;100.00;99241.63;5210754;28;20029;-82
2021/05/17 02:57:49;;;;;;;3.15;0.82;;;;;;;8.71;100.00;99245.16;5208397;28;20033;-82
2021/05/17 03:00:21;;;;;;;3.75;1.00;;;;;;;8.47;100.00;99246.38;5209692;28;20371;-82
2021/05/17 03:03:00;;;;;;;5.07;1.20;;;;;;;8.23;100.00;99250.13;5210342;28;20025;-82
2021/05/17 03:05:33;;;;;;;4.30;0.90;;;;;;;8.21;100.00;99246.75;5208705;28;20430;-82
2021/05/17 03:08:07;;;;;;;2.13;1.13;;;;;;;8.19;100.00;99255.56;5227790;28;20194;-82
2021/05/17 03:10:41;;;;;;;2.10;1.00;;;;;;;8.28;100.00;99255.13;5210378;28;20031;-82
2021/05/17 03:13:18;;;;;;;2.72;0.80;;;;;;;8.36;100.00;99255.63;5209809;28;20433;-82
2021/05/17 03:15:49;;;;;;;2.15;0.98;;;;;;;8.49;100.00;99262.75;5210625;28;20021;-82
2021/05/17 03:18:19;;;;;;;4.57;1.10;;;;;;;8.59;100.00;99263.97;5210314;28;20035;-82
2021/05/17 03:20:50;;;;;;;3.38;1.20;;;;;;;8.39;100.00;99258.91;5212173;28;20024;-81
2021/05/17 03:23:20;;;;;;;4.30;1.10;;;;;;;8.39;100.00;99261.50;5213397;28;20108;-82
2021/05/17 03:25:51;;;;;;;3.17;1.05;;;;;;;8.35;100.00;99261.75;5212800;28;20461;-82
2021/05/17 03:28:22;;;;;;;2.13;1.20;;;;;;;8.34;100.00;99260.88;5213532;28;20112;-82
2021/05/17 03:30:52;;;;;;;2.45;1.20;;;;;;;8.37;100.00;99267.72;5230428;28;20521;-82
2021/05/17 03:33:22;;;;;;;2.30;0.98;;;;;;;8.43;100.00;99273.47;5213275;28;20059;-82
2021/05/17 03:35:53;;;;;;;2.47;0.98;;;;;;;8.53;100.00;99268.66;5211662;28;20111;-82
2021/05/17 03:38:23;;;;;;;2.88;1.00;;;;;;;8.54;100.00;99283.38;5231751;28;20033;-82
2021/05/17 03:40:53;;;;;;;2.92;1.10;;;;;;;8.55;100.00;99275.47;5213035;28;20111;-82
2021/05/17 03:43:24;;;;;;;3.53;1.00;;;;;;;8.45;100.00;99282.06;5214053;28;20029;-82
2021/05/17 03:45:54;;;;;;;2.63;1.08;;;;;;;8.64;100.00;99282.84;5232047;28;20055;-82
2021/05/17 03:48:24;;;;;;;2.65;0.90;;;;;;;8.74;100.00;99289.28;5231494;28;20031;-82
2021/05/17 03:50:55;;;;;;;3.28;0.95;;;;;;;8.77;100.00;99290.91;5213913;28;20560;-82
2021/05/17 03:53:25;;;;;;;2.35;0.85;;;;;;;8.90;100.00;99279.81;5214385;28;20040;-83
2021/05/17 03:55:56;;;;;;;4.43;1.10;;;;;;;9.05;100.00;99289.47;5213382;28;20515;-82
2021/05/17 03:58:26;;;;;;;2.35;0.90;;;;;;;9.18;100.00;99277.50;5213145;28;20037;-83
2021/05/17 04:00:58;;;;;;;4.43;1.00;;;;;;;9.12;100.00;99285.66;5230761;28;20028;-82
2021/05/17 04:03:29;;;;;;;5.57;0.88;;;;;;;9.14;100.00;99286.41;5210746;28;20111;-82
2021/05/17 04:14:00;;;;;;;2.45;0.90;;;;;;;9.71;100.00;99296.44;5228182;28;20059;-82
2021/05/17 04:16:31;;;;;;;5.38;0.90;;;;;;;9.90;100.00;99299.78;5213223;28;20084;-82
2021/05/17 04:19:02;;;;;;;2.97;0.90;;;;;;;9.96;100.00;99299.47;5214951;28;20263;-82
2021/05/17 04:21:32;;;;;;;3.80;1.00;;;;;;;10.18;100.00;99300.84;5213538;28;20037;-82
2021/05/17 04:24:02;;;;;;;4.45;1.00;;;;;;;10.23;100.00;99298.00;5232634;28;20076;-82
2021/05/17 04:26:33;;;;;;;3.92;1.10;;;;;;;11.16;100.00;99296.09;5232435;28;20063;-82
2021/05/17 04:29:04;;;;;;;1.63;0.60;;;;;;;12.47;94.63;99294.94;5214495;28;20021;-83
2021/05/17 04:31:34;;;;;;;2.40;0.80;;;;;;;13.79;90.08;99297.38;5213996;28;20502;-83
2021/05/17 04:34:04;;;;;;;4.40;0.70;;;;;;;14.38;84.55;99295.84;5209087;28;20036;-84
2021/05/17 04:36:35;;;;;;;3.50;0.80;;;;;;;15.49;78.57;99294.50;5227569;28;20032;-84
2021/05/17 04:39:05;;;;;;;3.50;0.70;;;;;;;16.12;75.33;99286.91;5209635;28;20121;-84
2021/05/17 04:41:36;;;;;;;1.92;0.60;;;;;;;16.24;78.42;99293.81;5209026;28;20021;-84
2021/05/17 04:44:06;;;;;;;3.13;0.70;;;;;;;16.92;72.55;99291.78;5208874;28;20209;-84
2021/05/17 04:46:37;;;;;;;1.58;0.60;;;;;;;16.61;75.25;99297.06;5227284;28;20649;-84
2021/05/17 04:49:07;;;;;;;3.33;0.80;;;;;;;17.97;70.94;99286.31;5228193;28;20032;-84
2021/05/17 04:51:37;;;;;;;4.47;0.83;;;;;;;17.85;73.27;99297.94;5210727;28;20044;-84
2021/05/17 04:54:08;;;;;;;2.88;0.80;;;;;;;18.98;67.44;99286.09;5212207;28;20351;-84
2021/05/17 04:56:39;;;;;;;1.92;0.70;;;;;;;18.60;66.81;99293.97;5213900;28;20025;-81
2021/05/17 04:59:09;;;;;;;3.00;0.57;;;;;;;19.23;67.12;99286.41;5231308;28;20032;-82
2021/05/17 05:01:40;;;;;;;3.23;0.70;;;;;;;18.90;68.47;99291.25;5211468;28;20454;-82
2021/05/17 05:04:10;;;;;;;1.27;0.60;;;;;;;19.48;65.10;99291.09;5211552;28;20283;-82
2021/05/17 05:06:40;;;;;;;2.53;0.60;;;;;;;22.17;60.35;99276.66;5210671;28;20059;-81
2021/05/17 05:09:10;;;;;;;3.40;0.93;;;;;;;22.46;55.99;99285.13;5228229;28;20058;-82
2021/05/17 05:11:41;;;;;;;3.88;0.95;;;;;;;22.42;58.95;99294.44;5209358;28;20080;-81
2021/05/17 05:14:12;;;;;;;4.50;0.90;;;;;;;21.35;62.33;99293.16;5212863;28;20438;-82
2021/05/17 05:16:42;;;;;;;3.10;1.00;;;;;;;24.49;54.87;99282.19;5213177;28;20640;-82
2021/05/17 05:19:12;;;;;;;3.28;1.10;;;;;;;23.19;57.21;99279.03;5230723;28;20093;-81
2021/05/17 05:21:42;;;;;;;2.47;0.90;;;;;;;23.49;57.16;99289.03;5213427;28;20078;-82
2021/05/17 05:24:13;;;;;;;2.93;1.20;;;;;;;22.40;59.20;99292.97;5213873;28;20267;-82
2021/05/17 05:26:52;;;;;;;2.45;0.90;;;;;;;24.72;53.19;99280.44;5231130;28;20263;-82
2021/05/17 05:34:29;;;;;;;3.80;1.20;;;;;;;24.80;55.86;99281.25;5230676;28;20028;-82
2021/05/17 05:37:00;;;;;;;3.28;1.02;;;;;;;24.55;55.94;99293.03;5213102;28;20021;-82
2021/05/17 05:39:30;;;;;;;4.55;1.50;;;;;;;23.73;54.48;99294.38;5231668;28;20380;-82
2021/05/17 05:42:00;;;;;;;4.43;1.60;;;;;;;22.21;60.92;99306.44;5213201;28;20027;-81
2021/05/17 05:44:32;;;;;;;2.38;1.20;;;;;;;23.34;58.11;99298.72;5230090;28;20040;-82
2021/05/17 05:47:02;;;;;;;5.60;1.38;;;;;;;24.88;54.97;99300.75;5231984;28;20033;-82
2021/05/17 05:49:33;;;;;;;5.05;1.98;;;;;;;23.19;58.68;99306.53;5211697;28;20044;-82
2021/05/17 05:52:03;;;;;;;3.30;1.60;;;;;;;25.37;54.89;99298.59;5228745;28;20020;-82
2021/05/17 05:54:34;;;;;;;4.78;2.30;;;;;;;22.84;59.30;99308.59;5211014;28;20060;-82
2021/05/17 05:57:07;;;;;;;5.20;2.20;;;;;;;23.47;56.96;99307.03;5210226;28;20495;-82
2021/05/17 05:59:37;;;;;;;6.38;2.22;;;;;;;22.77;59.35;99316.41;5211210;28;20032;-82
2021/05/17 06:02:08;;;;;;;7.85;2.42;;;;;;;22.79;59.49;99314.41;5210000;28;20025;-82
2021/05/17 06:04:39;;;;;;;8.25;2.53;;;;;;;21.73;61.30;99316.81;5209687;28;20088;-82
2021/05/17 06:07:09;;;;;;;6.40;2.60;;;;;;;20.09;65.96;99326.06;5209954;28;20478;-82
2021/05/17 06:09:39;;;;;;;5.38;2.55;;;;;;;20.12;65.85;99329.25;5206811;28;20036;-82
2021/05/17 06:12:10;;;;;;;8.38;2.58;;;;;;;19.81;66.99;99327.75;5208032;28;20024;-82
2021/05/17 06:14:41;;;;;;;7.40;3.03;;;;;;;18.21;69.90;99336.25;5228818;28;20024;-82
2021/05/17 06:17:12;;;;;;;8.05;2.83;;;;;;;18.33;70.80;99337.88;5211115;28;20037;-83
2021/05/17 06:19:43;;;;;;;7.93;2.60;;;;;;;19.78;67.59;99333.34;5230002;28;20115;-82
2021/05/17 06:22:13;;;;;;;6.28;2.70;;;;;;;18.37;70.01;99336.66;5211994;28;20060;-82
2021/05/17 06:24:44;;;;;;;5.07;2.60;;;;;;;19.55;67.55;99332.00;5212250;28;20035;-82
2021/05/17 06:27:15;;;;;;;5.05;2.75;;;;;;;19.28;67.08;99334.50;5212083;28;20021;-83
2021/05/17 06:29:46;;;;;;;5.22;2.90;;;;;;;18.00;70.63;99330.19;5229566;28;20082;-83
2021/05/17 06:32:17;;;;;;;5.43;2.70;;;;;;;18.47;70.36;99337.50;5211842;28;20060;-83
2021/05/17 06:34:49;;;;;;;7.03;2.88;;;;;;;19.45;68.95;99331.16;5211375;28;20426;-81
2021/05/17 06:37:19;;;;;;;6.95;3.38;;;;;;;18.92;69.27;99344.91;5212078;28;20027;-83
2021/05/17 06:39:49;;;;;;;7.80;3.00;;;;;;;19.12;68.55;99343.94;5212153;28;20108;-83
2021/05/17 06:42:20;;;;;;;4.28;2.67;;;;;;;19.99;66.58;99339.28;5229901;28;20070;-83
2021/05/17 06:44:51;;;;;;;4.20;2.58;;;;;;;20.22;65.54;99342.47;5230554;28;20021;-83
2021/05/17 06:47:22;;;;;;;5.93;3.60;;;;;;;20.25;65.43;99340.38;5212011;28;20112;-84
2021/05/17 06:49:52;;;;;;;6.68;3.15;;;;;;;20.74;64.07;99337.38;5212200;28;20029;-83
2021/05/17 06:52:25;;;;;;;6.15;3.50;;;;;;;21.77;62.65;99342.09;5229159;28;20387;-82
2021/05/17 06:55:04;;;;;;;6.60;2.92;;;;;;;22.08;63.43;99348.66;5210764;28;20073;-82
2021/05/17 06:57:48;;;;;;;5.40;3.05;;;;;;;22.22;60.86;99350.75;5194898;28;20032;-82
2021/05/17 07:02:58;;;;;;;6.35;3.30;;;;;;;20.94;63.04;99344.28;5226465;28;20601;-82
2021/05/17 07:05:29;;;;;;;5.68;3.50;;;;;;;20.12;66.81;99354.97;5208869;28;20632;-81
2021/05/17 07:13:22;;;;;;;7.97;3.80;;;;;;;19.68;66.21;99363.50;5228268;28;20028;-81
2021/05/17 07:15:52;;;;;;;9.07;4.20;;;;;;;18.06;71.26;99361.38;5227632;28;20037;-81
2021/05/17 07:18:23;;;;;;;6.55;3.17;;;;;;;19.74;66.98;99350.53;5233010;23;20128;-78
2021/05/17 07:23:42;;;;;;;6.83;3.10;;;;;;;19.63;67.15;99353.31;5227375;28;20071;-77
2021/05/17 07:26:16;;;;;;;5.80;3.05;;;;;;;21.26;65.64;99357.91;5226539;28;20513;-79
2021/05/17 07:28:49;;;;;;;6.53;3.33;;;;;;;20.96;62.89;99358.22;5207974;28;20471;-77
2021/05/17 07:31:19;;;;;;;7.22;3.13;;;;;;;21.76;61.39;99348.41;5206430;28;20017;-78
2021/05/17 07:33:49;;;;;;;7.63;3.65;;;;;;;21.65;61.66;99354.81;5205375;28;20030;-77
2021/05/17 07:36:20;;;;;;;4.47;2.30;;;;;;;22.96;59.33;99353.44;5206685;28;20332;-78
2021/05/17 07:38:52;;;;;;;4.65;2.88;;;;;;;20.71;64.38;99359.75;5205901;28;20280;-78
2021/05/17 07:41:22;;;;;;;6.28;2.38;;;;;;;23.60;57.58;99358.94;5205485;28;20036;-78
2021/05/17 07:43:52;;;;;;;7.90;2.83;;;;;;;24.18;55.51;99354.22;5205262;28;20116;-78
2021/05/17 07:46:23;;;;;;;7.03;3.00;;;;;;;20.80;60.43;99361.53;5206394;28;20029;-77
2021/05/17 07:49:06;;;;;;;7.65;3.03;;;;;;;19.23;65.84;99379.13;5205707;28;20036;-77
2021/05/17 07:51:42;;;;;;;6.32;3.42;;;;;;;20.42;64.20;99368.81;5201333;28;20090;-78
2021/05/17 07:54:15;;;;;;;6.95;2.95;;;;;;;22.76;59.37;99357.38;5206797;28;20040;-78
2021/05/17 07:56:46;;;;;;;6.57;2.60;;;;;;;20.72;63.06;99363.25;5205923;28;20055;-79
2021/05/17 07:59:16;;;;;;;5.38;2.40;;;;;;;22.67;58.55;99352.16;5206852;28;20030;-78
2021/05/17 08:01:46;;;;;;;6.07;2.70;;;;;;;22.83;57.58;99358.38;5206818;28;20113;-77
2021/05/17 08:04:17;;;;;;;6.22;2.20;;;;;;;22.86;57.86;99362.56;5207156;28;20026;-78
2021/05/17 08:06:47;;;;;;;7.30;2.53;;;;;;;23.73;56.87;99361.91;5205168;28;20482;-78
2021/05/17 08:09:18;;;;;;;4.85;1.80;;;;;;;23.95;57.58;99361.28;5204286;28;20551;-78
2021/05/17 08:11:50;;;;;;;5.45;2.78;;;;;;;20.48;61.20;99378.84;5203846;28;20021;-78
2021/05/17 08:14:20;;;;;;;6.50;2.70;;;;;;;20.62;63.21;99375.72;5202606;28;20091;-77
2021/05/17 08:16:50;;;;;;;6.10;2.50;;;;;;;19.51;64.82;99372.16;5201768;28;20435;-78
2021/05/17 08:19:21;;;;;;;4.90;2.33;;;;;;;21.61;61.81;99366.69;5202307;28;20028;-77
2021/05/17 08:21:51;;;;;;;6.22;3.20;;;;;;;21.35;61.14;99378.25;5201566;28;20349;-77
2021/05/17 08:24:25;;;;;;;5.70;2.60;;;;;;;20.31;63.09;99371.63;5202025;28;20041;-77
2021/05/17 08:26:55;;;;;;;6.95;2.65;;;;;;;19.35;65.13;99375.38;5202209;28;20317;-77
2021/05/17 08:29:32;;;;;;;6.63;2.33;;;;;;;19.24;66.37;99383.44;5205845;28;20021;-78
2021/05/17 08:32:03;;;;;;;5.88;2.45;;;;;;;18.32;69.11;99387.31;5202850;28;20030;-77
2021/05/17 08:34:34;;;;;;;6.70;2.40;;;;;;;17.36;73.18;99384.09;5205221;28;20037;-77
2021/05/17 08:37:04;;;;;;;8.70;2.40;;;;;;;18.47;70.26;99385.13;5205624;28;20666;-77
2021/05/17 08:39:35;;;;;;;5.30;2.00;;;;;;;20.61;66.57;99378.53;5205805;28;20284;-77
2021/05/17 08:42:05;;;;;;;7.93;1.90;;;;;;;19.44;67.26;99390.44;5205318;28;20079;-77
2021/05/17 08:44:37;;;;;;;6.03;1.80;;;;;;;19.00;68.61;99393.56;5205651;28;20066;-77
2021/05/17 08:47:09;;;;;;;5.53;2.03;;;;;;;17.32;73.14;99406.41;5206029;28;20034;-78
2021/05/17 08:49:39;;;;;;;5.47;2.05;;;;;;;17.77;71.76;99400.00;5205875;28;20076;-77
2021/05/17 08:52:10;;;;;;;4.97;2.20;;;;;;;17.71;73.33;99405.81;5204904;28;20037;-77
2021/05/17 08:54:40;;;;;;;4.95;2.20;;;;;;;17.49;74.60;99405.91;5204751;28;20265;-78
2021/05/17 08:57:14;;;;;;;8.52;2.00;;;;;;;17.09;75.05;99407.41;5209405;28;20021;-77
2021/05/17 08:59:44;;;;;;;5.88;2.00;;;;;;;16.88;76.84;99415.28;5212454;28;20089;-77
2021/05/17 09:02:15;;;;;;;7.20;2.10;;;;;;;17.22;74.74;99418.66;5203800;28;20120;-79
2021/05/17 09:05:07;;;;;;;6.40;2.30;;;;;;;16.63;75.35;99421.75;5202997;28;20036;-79
2021/05/17 09:07:46;;;;;;;4.70;2.15;;;;;;;17.33;75.20;99419.47;5200413;28;20030;-78
2021/05/17 09:10:27;;;;;;;3.83;2.00;;;;;;;17.26;75.34;99415.66;5205119;28;20033;-80
2021/05/17 09:13:09;;;;;;;4.82;2.22;;;;;;;16.96;76.41;99410.22;5200806;28;20545;-79
2021/05/17 09:15:42;;;;;;;5.43;2.30;;;;;;;16.96;75.32;99420.78;5204801;28;20112;-79
2021/05/17 09:18:18;;;;;;;7.07;2.60;;;;;;;17.14;73.95;99429.03;5206179;28;20528;-79
2021/05/17 09:20:51;;;;;;;4.35;2.45;;;;;;;16.98;73.82;99425.94;5205594;28;20037;-79
2021/05/17 09:23:30;;;;;;;6.70;2.85;;;;;;;16.05;77.61;99438.56;5205903;28;20029;-79
2021/05/17 09:26:01;;;;;;;6.47;2.92;;;;;;;16.67;77.03;99436.38;5201698;28;20027;-79
2021/05/17 09:28:37;;;;;;;7.05;3.28;;;;;;;16.79;76.97;99436.28;5204909;28;20021;-79
2021/05/17 09:31:11;;;;;;;8.13;3.50;;;;;;;16.89;78.40;99429.28;5206379;28;20033;-80
2021/05/17 09:33:52;;;;;;;6.38;3.25;;;;;;;16.94;78.00;99429.78;5206105;28;20029;-80
2021/05/17 09:36:39;;;;;;;6.85;3.10;;;;;;;16.99;75.89;99425.78;5206820;28;20030;-79
2021/05/17 09:39:12;;;;;;;8.52;3.42;;;;;;;17.24;75.75;99432.59;5203843;28;20098;-79
2021/05/17 09:41:47;;;;;;;8.80;3.97;;;;;;;17.43;76.82;99430.16;5206138;28;20542;-81
2021/05/17 09:44:19;;;;;;;9.27;4.15;;;;;;;17.69;76.69;99434.16;5206192;28;20044;-80
2021/05/17 09:47:02;;;;;;;9.93;4.85;;;;;;;17.68;75.69;99427.19;5205143;28;20436;-79
2021/05/17 09:49:45;;;;;;;11.68;5.30;;;;;;;17.74;78.15;99431.97;5202349;28;20025;-80
2021/05/17 09:52:28;;;;;;;7.10;4.03;;;;;;;18.20;75.10;99440.38;5202427;28;20037;-80
2021/05/17 09:55:09;;;;;;;8.07;4.20;;;;;;;17.94;76.60;99439.06;5201269;28;20033;-80
2021/05/17 09:57:48;;;;;;;10.32;3.95;;;;;;;18.95;73.91;99435.47;5199573;28;20029;-80
2021/05/17 10:00:23;;;;;;;8.13;4.30;;;;;;;18.78;71.88;99438.75;5205691;28;20033;-81
2021/05/17 10:02:55;;;;;;;8.40;3.97;;;;;;;18.48;74.07;99435.28;5204699;28;20032;-80
2021/05/17 10:05:29;;;;;;;6.22;3.78;;;;;;;19.15;72.40;99428.44;5205782;28;20025;-79
2021/05/17 10:08:02;;;;;;;7.40;3.95;;;;;;;19.09;74.99;99429.81;5203891;28;20068;-79
2021/05/17 10:10:33;;;;;;;7.78;3.33;;;;;;;19.58;71.35;99434.25;5206254;28;20033;-80
2021/05/17 10:13:05;;;;;;;6.10;3.80;;;;;;;18.52;75.39;99420.00;5206562;28;20194;-80
2021/05/17 10:15:36;;;;;;;6.60;3.50;;;;;;;19.15;74.53;99416.03;5206577;28;20030;-79
2021/05/17 10:18:07;;;;;;;6.05;3.80;;;;;;;19.24;73.04;99430.31;5204858;28;20040;-79
2021/05/17 10:20:37;;;;;;;7.25;3.83;;;;;;;18.62;74.04;99420.84;5205548;28;20029;-78
2021/05/17 10:23:08;;;;;;;8.55;3.33;;;;;;;18.19;73.61;99413.09;5204814;28;20029;-79
2021/05/17 10:25:41;;;;;;;7.47;3.63;;;;;;;18.49;76.43;99420.25;5205084;28;20029;-79
2021/05/17 10:28:17;;;;;;;6.20;3.38;;;;;;;19.28;74.45;99411.34;5204970;28;20040;-79
2021/05/17 10:30:48;;;;;;;7.50;3.15;;;;;;;18.79;74.43;99410.50;5203863;28;20387;-79
2021/05/17 10:33:22;;;;;;;9.68;3.63;;;;;;;19.10;74.61;99412.13;5204891;28;20036;-79
2021/05/17 10:35:53;;;;;;;6.47;3.90;;;;;;;18.98;75.07;99403.47;5205872;28;20033;-80
2021/05/17 10:38:45;;;;;;;5.20;2.75;;;;;;;18.34;76.59;99405.69;5205434;28;20033;-79
2021/05/17 10:46:44;;;;;;;4.70;2.10;;;;;;;19.28;71.30;99387.50;5203286;28;20168;-80
2021/05/17 10:49:22;;;;;;;5.55;1.80;;;;;;;19.59;77.22;99382.91;5205855;28;20025;-80
2021/05/17 10:52:10;;;;;;;4.93;1.50;;;;;;;19.43;70.16;99386.09;5204895;28;20036;-79
2021/05/17 10:54:42;;;;;;;2.70;1.33;;;;;;;19.62;69.90;99380.00;5203687;28;20029;-78
2021/05/17 10:57:41;;;;;;;5.07;1.80;;;;;;;19.31;68.36;99378.44;5205540;28;20025;-80
2021/05/17 11:00:26;;;;;;;5.22;2.20;;;;;;;19.39;67.12;99383.88;5204386;28;20025;-80
2021/05/17 11:03:21;;;;;;;5.18;2.08;;;;;;;19.66;68.14;99384.88;5200520;28;20040;-79
2021/05/17 11:05:54;;;;;;;5.20;2.00;;;;;;;19.47;71.81;99384.84;5193879;28;20113;-79
2021/05/17 11:08:24;;;;;;;3.88;1.83;;;;;;;19.48;70.45;99391.00;5204816;28;20017;-79
2021/05/17 11:10:58;;;;;;;5.00;1.90;;;;;;;19.00;70.33;99396.22;5204011;28;20026;-79
2021/05/17 11:13:31;;;;;;;4.38;1.60;;;;;;;19.41;69.15;99388.06;5200685;28;20053;-78
2021/05/17 11:16:04;;;;;;;3.60;1.50;;;;;;;19.56;67.73;99386.69;5204717;28;20052;-78
2021/05/17 11:18:56;;;;;;;2.97;1.35;;;;;;;19.41;64.35;99390.72;5203558;28;20040;-79
2021/05/17 11:21:28;;;;;;;4.03;1.85;;;;;;;19.69;65.55;99381.94;5198516;28;20065;-80
2021/05/17 11:24:04;;;;;;;3.20;1.38;;;;;;;19.70;63.91;99377.44;5204967;28;20031;-79
2021/05/17 11:26:57;;;;;;;3.83;1.40;;;;;;;19.44;64.50;99371.06;5204700;28;20048;-79
2021/05/17 11:29:29;;;;;;;6.05;1.38;;;;;;;19.22;65.08;99385.41;5201957;28;20021;-79
2021/05/17 11:32:14;;;;;;;4.72;1.38;;;;;;;19.15;66.04;99383.41;5203452;28;20041;-79
2021/05/17 11:35:02;;;;;;;4.05;1.50;;;;;;;19.22;66.67;99389.84;5202838;28;20071;-79
2021/05/17 11:37:34;;;;;;;2.60;1.60;;;;;;;19.24;66.56;99386.09;5204290;28;20037;-78
2021/05/17 11:40:29;;;;;;;3.95;1.63;;;;;;;19.20;66.10;99391.81;5204148;28;20053;-80
2021/05/17 11:43:00;;;;;;;3.05;1.60;;;;;;;19.30;66.23;99390.84;5200243;28;20033;-79
2021/05/17 11:45:36;;;;;;;3.03;1.70;;;;;;;19.15;65.22;99392.19;5203303;28;20029;-79
2021/05/17 11:48:06;;;;;;;3.70;1.80;;;;;;;18.95;66.96;99398.41;5202452;28;20079;-79
2021/05/17 11:50:37;;;;;;;4.10;1.80;;;;;;;18.50;68.65;99401.59;5204029;28;20021;-79
2021/05/17 11:53:16;;;;;;;3.63;1.40;;;;;;;18.52;69.00;99398.81;5201181;28;20471;-78
2021/05/17 11:55:50;;;;;;;4.57;1.75;;;;;;;18.91;69.56;99401.47;5201200;28;20036;-78
2021/05/17 11:58:22;;;;;;;4.60;1.90;;;;;;;18.59;69.30;99405.25;5202830;28;20075;-78
2021/05/17 12:01:26;;;;;;;3.45;1.70;;;;;;;18.63;67.91;99404.84;5202662;28;20034;-78
2021/05/17 12:04:12;;;;;;;3.33;1.35;;;;;;;18.52;67.28;99407.59;5194382;28;20564;-78
2021/05/17 12:06:45;;;;;;;3.60;1.85;;;;;;;18.25;66.54;99402.00;5207781;28;20048;-78
2021/05/17 12:09:29;;;;;;;4.88;1.80;;;;;;;18.30;68.11;99407.75;5205904;28;20517;-77
2021/05/17 12:12:00;;;;;;;4.88;1.50;;;;;;;18.02;68.15;99407.56;5197669;28;20021;-78
2021/05/17 12:14:31;;;;;;;3.83;1.48;;;;;;;17.54;70.62;99409.84;5203458;28;20022;-77
2021/05/17 12:17:22;;;;;;;3.42;1.30;;;;;;;17.15;77.66;99434.16;5206044;28;20022;-78
2021/05/17 12:20:01;;;;;;;3.95;1.50;;;;;;;16.67;82.85;99439.88;5206382;28;20048;-77
2021/05/17 12:22:36;;;;;;;4.72;1.45;;;;;;;16.08;86.42;99448.84;5206375;28;20022;-78
2021/05/17 12:25:10;;;;;;;2.55;0.93;;;;;;;15.47;89.28;99457.03;5204165;28;20025;-77
2021/05/17 12:27:41;;;;;;;2.63;1.00;;;;;;;15.16;92.04;99460.16;5204934;28;20449;-77
2021/05/17 12:30:17;;;;;;;3.63;1.27;;;;;;;14.81;95.23;99465.41;5206480;28;20037;-78